createdAt,value
2023-02-17T00:00:30.932Z,22.80
2023-02-17T00:03:02.167Z,21.80
2023-02-17T00:05:30.666Z,21.80
2023-02-17T00:07:59.506Z,23.10
2023-02-17T00:10:28.821Z,23.00
2023-02-17T00:12:56.976Z,22.70
2023-02-17T00:15:26.220Z,21.70
2023-02-17T00:17:54.368Z,23.10
2023-02-17T00:20:25.040Z,23.30
2023-02-17T00:22:53.641Z,22.80
2023-02-17T00:25:21.842Z,23.70
2023-02-17T00:27:50.265Z,23.60
2023-02-17T00:30:18.909Z,22.70
2023-02-17T00:32:48.326Z,21.40
2023-02-17T00:35:16.477Z,21.80
2023-02-17T00:37:45.710Z,22.70
2023-02-17T00:40:14.373Z,21.00
2023-02-17T00:42:45.270Z,21.70
2023-02-17T00:45:13.705Z,22.20
2023-02-17T00:47:41.914Z,21.70
2023-02-17T00:50:11.677Z,22.20
2023-02-17T00:52:39.975Z,21.90
2023-02-17T00:55:09.255Z,22.20
2023-02-17T00:57:37.789Z,22.20
2023-02-17T01:00:06.862Z,21.70
2023-02-17T01:02:35.875Z,21.50
2023-02-17T01:05:04.987Z,19.70
2023-02-17T01:07:33.452Z,18.90
2023-02-17T01:10:05.406Z,19.00
2023-02-17T01:12:35.091Z,18.50
2023-02-17T01:15:03.603Z,18.80
2023-02-17T01:17:33.171Z,19.20
2023-02-17T01:20:01.878Z,19.10
2023-02-17T01:22:34.800Z,19.90
2023-02-17T01:25:04.286Z,18.80
2023-02-17T01:27:32.730Z,18.80
2023-02-17T01:30:01.310Z,19.20
2023-02-17T01:32:29.660Z,18.60
2023-02-17T01:34:57.855Z,20.80
2023-02-17T01:37:26.019Z,19.20
2023-02-17T01:39:56.034Z,19.80
2023-02-17T01:42:25.168Z,18.60
2023-02-17T01:45:19.555Z,20.10
2023-02-17T01:47:51.112Z,18.80
2023-02-17T01:50:21.524Z,19.80
2023-02-17T01:52:50.032Z,21.70
2023-02-17T01:55:19.196Z,22.40
2023-02-17T01:57:47.454Z,22.20
2023-02-17T02:00:17.524Z,25.20
2023-02-17T02:02:47.274Z,27.60
2023-02-17T02:05:16.697Z,26.70
2023-02-17T02:07:46.520Z,30.20
2023-02-17T02:10:15.046Z,31.20
2023-02-17T02:12:44.289Z,33.30
2023-02-17T02:15:22.472Z,32.90
2023-02-17T02:18:09.111Z,33.50
2023-02-17T02:20:43.275Z,35.20
2023-02-17T02:23:30.356Z,41.60
2023-02-17T02:26:35.960Z,37.10
2023-02-17T02:29:38.928Z,30.00
2023-02-17T02:32:25.882Z,25.60
2023-02-17T02:35:15.024Z,22.80
2023-02-17T02:37:45.620Z,22.70
2023-02-17T02:40:15.933Z,21.30
2023-02-17T02:42:44.533Z,21.80
2023-02-17T02:45:12.894Z,20.90
2023-02-17T02:47:55.456Z,19.20
2023-02-17T02:50:48.155Z,20.00
2023-02-17T02:53:29.125Z,16.90
2023-02-17T02:56:16.413Z,16.10
2023-02-17T02:59:06.182Z,17.00
2023-02-17T03:01:43.655Z,15.80
2023-02-17T03:04:21.306Z,14.40
2023-02-17T03:06:55.478Z,15.10
2023-02-17T03:09:27.502Z,15.70
2023-02-17T03:11:56.537Z,16.20
2023-02-17T03:14:25.928Z,16.20
2023-02-17T03:16:54.138Z,15.80
2023-02-17T03:19:22.984Z,16.10
2023-02-17T03:22:19.829Z,17.00
2023-02-17T03:24:49.191Z,15.70
2023-02-17T03:27:17.612Z,16.90
2023-02-17T03:29:46.381Z,17.70
2023-02-17T03:32:14.998Z,18.30
2023-02-17T03:34:43.151Z,19.70
2023-02-17T03:37:11.284Z,20.00
2023-02-17T03:39:39.879Z,20.50
2023-02-17T03:42:08.049Z,22.30
2023-02-17T03:44:36.406Z,22.90
2023-02-17T03:47:09.276Z,21.80
2023-02-17T03:49:37.932Z,22.40
2023-02-17T03:52:06.067Z,21.60
2023-02-17T03:54:35.260Z,20.20
2023-02-17T03:57:03.637Z,20.30
2023-02-17T03:59:33.261Z,20.10
2023-02-17T04:02:01.774Z,21.00
2023-02-17T04:04:30.134Z,20.40
2023-02-17T04:06:58.783Z,19.30
2023-02-17T04:09:32.842Z,19.10
2023-02-17T04:12:01.024Z,17.90
2023-02-17T04:14:29.508Z,17.30
2023-02-17T04:16:59.816Z,16.90
2023-02-17T04:19:28.050Z,16.10
2023-02-17T04:21:58.158Z,16.10
2023-02-17T04:24:26.471Z,15.80
2023-02-17T04:26:56.321Z,15.80
2023-02-17T04:29:24.740Z,15.20
2023-02-17T04:31:53.090Z,14.80
2023-02-17T04:34:22.434Z,14.30
2023-02-17T04:36:50.990Z,14.50
2023-02-17T04:39:19.319Z,14.30
2023-02-17T04:41:47.518Z,14.50
2023-02-17T04:44:15.891Z,14.70
2023-02-17T04:46:44.230Z,15.70
2023-02-17T04:49:12.781Z,14.80
2023-02-17T04:51:41.184Z,14.20
2023-02-17T04:54:10.807Z,14.40
2023-02-17T04:56:38.994Z,12.90
2023-02-17T04:59:07.671Z,13.70
2023-02-17T05:01:35.997Z,14.00
2023-02-17T05:04:08.660Z,14.40
2023-02-17T05:06:37.639Z,13.90
2023-02-17T05:09:06.292Z,13.20
2023-02-17T05:11:35.025Z,13.30
2023-02-17T05:14:03.428Z,13.20
2023-02-17T05:16:32.483Z,13.10
2023-02-17T05:19:00.766Z,13.20
2023-02-17T05:21:30.074Z,12.90
2023-02-17T05:23:58.501Z,12.40
2023-02-17T05:26:27.014Z,12.60
2023-02-17T05:28:55.544Z,12.60
2023-02-17T05:31:24.479Z,12.90
2023-02-17T05:33:55.901Z,13.60
2023-02-17T05:36:24.120Z,12.70
2023-02-17T05:38:52.732Z,12.50
2023-02-17T05:41:20.956Z,11.40
2023-02-17T05:43:49.611Z,11.40
2023-02-17T05:46:19.494Z,11.30
2023-02-17T05:48:48.771Z,11.00
2023-02-17T05:51:21.755Z,10.60
2023-02-17T05:53:49.973Z,11.10
2023-02-17T05:56:18.216Z,11.80
2023-02-17T05:58:47.956Z,10.50
2023-02-17T06:01:16.214Z,10.40
2023-02-17T06:03:44.469Z,10.80
2023-02-17T06:06:12.874Z,10.30
2023-02-17T06:08:41.676Z,10.60
2023-02-17T06:11:11.813Z,10.40
2023-02-17T06:13:41.120Z,9.90
2023-02-17T06:16:14.400Z,10.70
2023-02-17T06:18:45.587Z,10.20
2023-02-17T06:21:13.885Z,10.80
2023-02-17T06:23:42.244Z,9.70
2023-02-17T06:26:10.498Z,10.70
2023-02-17T06:28:38.679Z,10.90
2023-02-17T06:31:07.343Z,9.90
2023-02-17T06:33:35.587Z,9.70
2023-02-17T06:36:04.920Z,9.70
2023-02-17T06:38:33.760Z,9.70
2023-02-17T06:41:01.968Z,9.20
2023-02-17T06:43:32.815Z,9.90
2023-02-17T06:46:01.063Z,10.10
2023-02-17T06:48:33.085Z,9.80
2023-02-17T06:51:01.333Z,8.90
2023-02-17T06:53:29.859Z,9.50
2023-02-17T06:55:58.371Z,9.30
2023-02-17T06:58:26.681Z,9.20
2023-02-17T07:00:55.644Z,9.10
2023-02-17T07:03:24.077Z,9.80
2023-02-17T07:05:56.463Z,9.80
2023-02-17T07:08:24.944Z,10.10
2023-02-17T07:10:53.403Z,10.20
2023-02-17T07:13:23.374Z,9.90
2023-02-17T07:15:51.590Z,9.50
2023-02-17T07:18:20.986Z,8.60
2023-02-17T07:20:49.402Z,9.10
2023-02-17T07:23:17.841Z,9.00
2023-02-17T07:25:46.584Z,8.50
2023-02-17T07:28:14.775Z,10.50
2023-02-17T07:30:43.976Z,9.30
2023-02-17T07:33:14.096Z,8.90
2023-02-17T07:35:46.019Z,8.90
2023-02-17T07:38:15.614Z,8.90
2023-02-17T07:40:43.857Z,8.50
2023-02-17T07:43:12.788Z,8.70
2023-02-17T07:45:41.033Z,8.90
2023-02-17T07:48:10.068Z,8.90
2023-02-17T07:51:04.429Z,7.70
2023-02-17T07:53:33.059Z,8.00
2023-02-17T07:56:09.113Z,8.40
2023-02-17T07:58:39.354Z,8.40
2023-02-17T08:01:14.501Z,8.70
2023-02-17T08:03:43.213Z,9.10
2023-02-17T08:06:14.075Z,9.20
2023-02-17T08:09:01.509Z,9.40
2023-02-17T08:11:50.052Z,9.40
2023-02-17T08:14:18.474Z,9.70
2023-02-17T08:16:50.941Z,8.70
2023-02-17T08:19:19.233Z,8.70
2023-02-17T08:21:47.485Z,9.20
2023-02-17T08:24:19.847Z,9.20
2023-02-17T08:26:51.676Z,9.20
2023-02-17T08:29:21.066Z,9.20
2023-02-17T08:31:52.143Z,9.60
2023-02-17T08:34:20.705Z,10.10
2023-02-17T08:36:48.961Z,11.90
2023-02-17T08:39:17.586Z,17.00
2023-02-17T08:41:46.872Z,12.30
2023-02-17T08:44:20.302Z,19.80
2023-02-17T08:46:48.876Z,19.00
2023-02-17T08:49:20.335Z,14.80
2023-02-17T08:51:48.550Z,12.20
2023-02-17T08:54:17.243Z,11.60
2023-02-17T08:56:46.329Z,11.60
2023-02-17T08:59:14.698Z,11.60
2023-02-17T09:01:43.995Z,10.20
2023-02-17T09:04:13.037Z,10.60
2023-02-17T09:06:52.041Z,10.70
2023-02-17T09:09:22.717Z,10.70
2023-02-17T09:11:51.029Z,10.30
2023-02-17T09:14:19.478Z,10.20
2023-02-17T09:16:47.646Z,10.30
2023-02-17T09:19:16.157Z,10.20
2023-02-17T09:21:45.718Z,10.50
2023-02-17T09:24:15.079Z,9.80
2023-02-17T09:26:43.884Z,12.60
2023-02-17T09:29:12.087Z,18.90
2023-02-17T09:31:42.740Z,13.80
2023-02-17T09:34:11.142Z,13.80
2023-02-17T09:36:40.507Z,13.40
2023-02-17T09:39:12.283Z,12.40
2023-02-17T09:41:47.966Z,11.50
2023-02-17T09:44:23.869Z,11.70
2023-02-17T09:47:08.294Z,10.90
2023-02-17T09:49:42.379Z,12.80
2023-02-17T09:52:20.583Z,10.90
2023-02-17T09:54:52.205Z,9.70
2023-02-17T09:57:21.549Z,9.80
2023-02-17T09:59:56.124Z,9.60
2023-02-17T10:02:35.429Z,9.90
2023-02-17T10:05:06.390Z,10.30
2023-02-17T10:07:47.212Z,10.50
2023-02-17T10:10:21.103Z,10.50
2023-02-17T10:12:52.105Z,10.30
2023-02-17T10:15:42.268Z,9.40
2023-02-17T10:18:26.783Z,10.60
2023-02-17T10:21:01.872Z,9.90
2023-02-17T10:23:30.588Z,10.10
2023-02-17T10:26:12.265Z,11.40
2023-02-17T10:28:51.078Z,9.90
2023-02-17T10:31:26.504Z,9.80
2023-02-17T10:34:04.130Z,9.10
2023-02-17T10:36:59.756Z,8.60
2023-02-17T10:39:49.861Z,9.30
2023-02-17T10:42:41.351Z,8.60
2023-02-17T10:45:33.573Z,8.80
2023-02-17T10:48:09.540Z,9.40
2023-02-17T10:50:41.301Z,9.00
2023-02-17T10:53:22.942Z,9.40
2023-02-17T10:55:51.141Z,8.70
2023-02-17T10:58:41.611Z,9.40
2023-02-17T11:01:10.200Z,9.10
2023-02-17T11:03:41.218Z,9.20
2023-02-17T11:06:19.382Z,9.20
2023-02-17T11:08:53.063Z,9.00
2023-02-17T11:11:30.616Z,8.50
2023-02-17T11:14:19.748Z,9.70
2023-02-17T11:16:54.770Z,8.90
2023-02-17T11:19:28.496Z,9.10
2023-02-17T11:21:58.809Z,8.60
2023-02-17T11:24:27.416Z,8.50
2023-02-17T11:27:00.064Z,8.60
2023-02-17T11:29:29.883Z,8.90
2023-02-17T11:31:59.403Z,8.80
2023-02-17T11:34:29.615Z,9.30
2023-02-17T11:37:00.327Z,8.80
2023-02-17T11:39:28.828Z,9.40
2023-02-17T11:41:57.840Z,9.30
2023-02-17T11:44:29.029Z,9.10
2023-02-17T11:47:04.563Z,9.00
2023-02-17T11:49:52.028Z,9.20
2023-02-17T11:52:42.059Z,9.50
2023-02-17T11:55:21.418Z,9.60
2023-02-17T11:58:12.204Z,8.60
2023-02-17T12:01:11.415Z,10.10
2023-02-17T12:03:43.273Z,10.00
2023-02-17T12:06:17.379Z,9.30
2023-02-17T12:08:52.582Z,9.00
2023-02-17T12:11:33.574Z,10.10
2023-02-17T12:14:39.545Z,8.80
2023-02-17T12:17:24.357Z,9.50
2023-02-17T12:20:14.874Z,9.10
2023-02-17T12:22:55.834Z,9.00
2023-02-17T12:25:38.380Z,9.60
2023-02-17T12:28:41.987Z,10.00
2023-02-17T12:31:35.956Z,10.50
2023-02-17T12:34:16.191Z,11.00
2023-02-17T12:36:44.378Z,10.40
2023-02-17T12:39:18.821Z,10.70
2023-02-17T12:41:51.359Z,10.10
2023-02-17T12:44:26.606Z,10.60
2023-02-17T12:46:57.720Z,10.80
2023-02-17T12:49:31.016Z,11.10
2023-02-17T12:52:11.271Z,11.80
2023-02-17T12:54:45.166Z,11.90
2023-02-17T12:57:48.904Z,11.70
2023-02-17T13:00:30.233Z,11.50
2023-02-17T13:02:59.616Z,11.50
2023-02-17T13:05:38.079Z,12.50
2023-02-17T13:08:11.705Z,12.90
2023-02-17T13:10:40.820Z,12.40
2023-02-17T13:13:17.161Z,12.20
2023-02-17T13:15:46.470Z,12.00
2023-02-17T13:18:36.404Z,12.30
2023-02-17T13:21:23.380Z,13.60
2023-02-17T13:24:36.745Z,14.30
2023-02-17T13:27:33.212Z,12.50
2023-02-17T13:30:17.493Z,12.30
2023-02-17T13:32:46.707Z,13.50
2023-02-17T13:35:25.077Z,13.20
2023-02-17T13:37:53.230Z,12.70
2023-02-17T13:40:22.611Z,11.40
2023-02-17T13:45:26.513Z,12.10
2023-02-17T13:47:59.479Z,12.10
2023-02-17T13:50:32.198Z,13.10
2023-02-17T13:53:02.004Z,12.40
2023-02-17T13:55:32.394Z,14.00
2023-02-17T13:58:01.003Z,13.70
2023-02-17T14:00:34.331Z,14.50
2023-02-17T14:03:32.382Z,14.40
2023-02-17T14:06:01.249Z,13.10
2023-02-17T14:08:39.943Z,13.80
2023-02-17T14:11:09.360Z,13.80
2023-02-17T14:13:40.312Z,14.10
2023-02-17T14:16:35.367Z,13.00
2023-02-17T14:19:19.162Z,13.00
2023-02-17T14:21:56.496Z,12.60
2023-02-17T14:24:35.738Z,14.50
2023-02-17T14:27:08.872Z,18.10
2023-02-17T14:29:43.008Z,16.90
2023-02-17T14:32:32.994Z,15.50
2023-02-17T14:35:20.060Z,14.50
2023-02-17T14:37:48.939Z,14.10
2023-02-17T14:40:26.378Z,15.20
2023-02-17T14:42:55.417Z,15.30
2023-02-17T14:45:24.538Z,14.20
2023-02-17T14:47:53.474Z,14.00
2023-02-17T14:50:21.756Z,13.50
2023-02-17T14:52:50.024Z,14.10
2023-02-17T14:55:41.363Z,13.50
2023-02-17T14:58:20.754Z,14.50
2023-02-17T15:00:49.114Z,13.30
2023-02-17T15:03:21.009Z,12.20
2023-02-17T15:05:49.726Z,14.30
2023-02-17T15:08:21.519Z,14.60
2023-02-17T15:10:50.649Z,15.40
2023-02-17T15:13:21.062Z,17.60
2023-02-17T15:15:53.177Z,18.90
2023-02-17T15:18:23.190Z,15.90
2023-02-17T15:20:51.631Z,31.00
2023-02-17T15:23:22.288Z,26.90
2023-02-17T15:25:52.142Z,20.80
2023-02-17T15:28:21.576Z,17.90
2023-02-17T15:30:53.259Z,15.40
2023-02-17T15:33:23.250Z,14.60
2023-02-17T15:35:53.792Z,14.50
2023-02-17T15:38:22.538Z,16.60
2023-02-17T15:40:51.143Z,19.90
2023-02-17T15:43:21.380Z,16.70
2023-02-17T15:45:49.521Z,18.70
2023-02-17T15:48:24.308Z,17.40
2023-02-17T15:50:53.349Z,16.10
2023-02-17T15:53:22.088Z,15.40
2023-02-17T15:55:50.517Z,16.80
2023-02-17T15:58:20.366Z,15.40
2023-02-17T16:00:50.517Z,19.30
2023-02-17T16:03:19.075Z,16.80
2023-02-17T16:05:48.114Z,16.10
2023-02-17T16:08:16.329Z,16.80
2023-02-17T16:10:50.345Z,16.80
2023-02-17T16:13:26.477Z,17.40
2023-02-17T16:15:58.218Z,17.50
2023-02-17T16:18:26.545Z,16.70
2023-02-17T16:20:55.147Z,18.10
2023-02-17T16:23:23.292Z,16.90
2023-02-17T16:25:51.529Z,15.70
2023-02-17T16:28:21.067Z,15.40
2023-02-17T16:30:49.769Z,17.30
2023-02-17T16:33:18.220Z,18.20
2023-02-17T16:35:46.609Z,27.40
2023-02-17T16:38:23.196Z,35.40
2023-02-17T16:40:52.690Z,33.90
2023-02-17T16:43:26.993Z,26.40
2023-02-17T16:45:58.711Z,20.40
2023-02-17T16:48:29.146Z,18.70
2023-02-17T16:50:57.359Z,18.60
2023-02-17T16:53:25.788Z,19.00
2023-02-17T16:55:55.358Z,18.80
2023-02-17T16:58:24.889Z,19.90
2023-02-17T17:00:55.049Z,20.70
2023-02-17T17:03:23.421Z,20.10
2023-02-17T17:05:52.457Z,21.30
2023-02-17T17:08:22.165Z,21.60
2023-02-17T17:10:53.604Z,20.90
2023-02-17T17:13:23.615Z,22.70
2023-02-17T17:15:51.998Z,23.00
2023-02-17T17:18:21.269Z,23.50
2023-02-17T17:20:50.169Z,22.10
2023-02-17T17:23:20.258Z,21.80
2023-02-17T17:25:48.713Z,22.70
2023-02-17T17:28:19.231Z,22.30
2023-02-17T17:30:49.374Z,21.90
2023-02-17T17:33:17.737Z,24.20
2023-02-17T17:35:46.231Z,23.20
2023-02-17T17:38:15.702Z,21.60
2023-02-17T17:40:55.871Z,21.70
2023-02-17T17:43:24.919Z,21.50
2023-02-17T17:45:54.742Z,23.90
2023-02-17T17:48:23.013Z,21.60
2023-02-17T17:50:52.608Z,25.10
2023-02-17T17:53:22.600Z,23.10
2023-02-17T17:55:50.725Z,23.40
2023-02-17T17:58:21.376Z,21.10
2023-02-17T18:00:53.133Z,20.50
2023-02-17T18:03:23.134Z,20.40
2023-02-17T18:05:51.343Z,21.90
2023-02-17T18:08:20.248Z,22.20
2023-02-17T18:10:48.492Z,22.00
2023-02-17T18:13:22.589Z,21.70
2023-02-17T18:15:51.561Z,21.50
2023-02-17T18:18:20.287Z,22.40
2023-02-17T18:20:48.465Z,21.00
2023-02-17T18:23:17.618Z,21.90
2023-02-17T18:25:46.379Z,23.50
2023-02-17T18:28:14.699Z,22.20
2023-02-17T18:30:43.207Z,23.30
2023-02-17T18:33:14.647Z,22.10
2023-02-17T18:35:46.118Z,21.90
2023-02-17T18:38:14.967Z,21.70
2023-02-17T18:40:44.063Z,21.00
2023-02-17T18:43:12.262Z,22.10
2023-02-17T18:45:40.482Z,22.30
2023-02-17T18:48:09.471Z,20.50
2023-02-17T18:50:37.727Z,20.80
2023-02-17T18:53:06.347Z,22.30
2023-02-17T18:55:37.366Z,22.70
2023-02-17T18:58:05.621Z,23.40
2023-02-17T19:00:34.149Z,28.30
2023-02-17T19:03:06.101Z,25.00
2023-02-17T19:05:34.562Z,22.90
2023-02-17T19:08:10.254Z,29.50
2023-02-17T19:10:39.714Z,30.30
2023-02-17T19:13:07.924Z,28.00
2023-02-17T19:15:38.059Z,25.80
2023-02-17T19:18:06.314Z,25.20
2023-02-17T19:20:34.711Z,21.50
2023-02-17T19:23:03.074Z,20.50
2023-02-17T19:25:31.714Z,19.90
2023-02-17T19:28:00.591Z,20.80
2023-02-17T19:30:28.949Z,21.70
2023-02-17T19:32:58.018Z,21.70
2023-02-17T19:35:27.276Z,21.60
2023-02-17T19:37:56.110Z,22.00
2023-02-17T19:40:25.039Z,20.20
2023-02-17T19:42:55.510Z,19.60
2023-02-17T19:45:23.674Z,20.00
2023-02-17T19:47:51.888Z,20.60
2023-02-17T19:50:20.580Z,19.20
2023-02-17T19:52:49.067Z,19.30
2023-02-17T19:55:17.569Z,19.40
2023-02-17T19:57:45.834Z,19.50
2023-02-17T20:00:15.209Z,18.80
2023-02-17T20:02:43.613Z,19.00
2023-02-17T20:05:12.385Z,19.50
2023-02-17T20:07:40.964Z,19.10
2023-02-17T20:10:14.926Z,19.20
2023-02-17T20:12:44.547Z,18.00
2023-02-17T20:15:13.635Z,18.40
2023-02-17T20:17:44.649Z,20.90
2023-02-17T20:20:12.802Z,19.00
2023-02-17T20:22:40.940Z,19.90
2023-02-17T20:25:09.191Z,19.50
2023-02-17T20:27:37.870Z,19.60
2023-02-17T20:30:06.724Z,20.80
2023-02-17T20:32:37.187Z,20.10
2023-02-17T20:35:06.242Z,20.40
2023-02-17T20:37:34.792Z,19.00
2023-02-17T20:40:04.155Z,19.60
2023-02-17T20:42:33.184Z,19.60
2023-02-17T20:45:01.698Z,19.30
2023-02-17T20:47:30.316Z,19.10
2023-02-17T20:49:59.105Z,18.30
2023-02-17T20:52:27.888Z,18.60
2023-02-17T20:54:56.103Z,18.30
2023-02-17T20:57:26.143Z,17.90
2023-02-17T20:59:54.305Z,17.60
2023-02-17T21:02:26.477Z,19.40
2023-02-17T21:04:54.749Z,19.00
2023-02-17T21:07:23.473Z,18.70
2023-02-17T21:09:53.247Z,17.40
2023-02-17T21:12:21.513Z,17.90
2023-02-17T21:14:50.040Z,19.30
2023-02-17T21:17:21.454Z,19.30
2023-02-17T21:19:50.662Z,17.50
2023-02-17T21:22:21.980Z,19.10
2023-02-17T21:24:50.484Z,17.40
2023-02-17T21:27:19.409Z,17.80
2023-02-17T21:29:47.703Z,18.40
2023-02-17T21:32:16.031Z,18.50
2023-02-17T21:34:44.372Z,18.90
2023-02-17T21:37:12.824Z,18.80
2023-02-17T21:39:41.204Z,18.60
2023-02-17T21:42:09.578Z,19.50
2023-02-17T21:44:53.190Z,20.90
2023-02-17T21:47:21.812Z,18.50
2023-02-17T21:49:53.404Z,18.30
2023-02-17T21:52:22.074Z,19.40
2023-02-17T21:54:51.934Z,20.30
2023-02-17T21:57:20.144Z,19.40
2023-02-17T21:59:53.949Z,19.60
2023-02-17T22:02:23.369Z,19.10
2023-02-17T22:04:56.102Z,18.50
2023-02-17T22:07:25.208Z,18.90
2023-02-17T22:09:53.673Z,19.50
2023-02-17T22:12:22.048Z,18.90
2023-02-17T22:14:50.661Z,18.80
2023-02-17T22:17:20.960Z,19.70
2023-02-17T22:19:49.206Z,19.40
2023-02-17T22:22:17.358Z,19.90
2023-02-17T22:24:45.996Z,19.90
2023-02-17T22:27:14.291Z,18.00
2023-02-17T22:29:42.482Z,19.60
2023-02-17T22:32:10.623Z,20.10
2023-02-17T22:34:38.881Z,20.30
2023-02-17T22:37:08.128Z,19.30
2023-02-17T22:39:36.837Z,19.60
2023-02-17T22:42:06.921Z,20.00
2023-02-17T22:44:35.152Z,18.30
2023-02-17T22:47:03.851Z,19.50
2023-02-17T22:49:32.072Z,19.80
2023-02-17T22:52:00.398Z,19.50
2023-02-17T22:54:30.611Z,19.10
2023-02-17T22:56:58.936Z,19.90
2023-02-17T22:59:27.224Z,19.30
2023-02-17T23:02:00.085Z,20.70
2023-02-17T23:04:29.023Z,18.80
2023-02-17T23:06:59.270Z,20.00
2023-02-17T23:09:27.703Z,19.90
2023-02-17T23:11:58.419Z,19.90
2023-02-17T23:14:35.557Z,19.00
2023-02-17T23:17:06.576Z,21.50
2023-02-17T23:19:36.760Z,21.00
2023-02-17T23:22:07.451Z,20.00
2023-02-17T23:24:35.635Z,20.20
2023-02-17T23:27:04.207Z,20.30
2023-02-17T23:29:32.781Z,20.50
2023-02-17T23:32:01.528Z,21.40
2023-02-17T23:34:30.218Z,20.40
2023-02-17T23:36:59.135Z,20.90
2023-02-17T23:39:27.515Z,21.20
2023-02-17T23:41:56.516Z,20.70
2023-02-17T23:44:24.789Z,20.70
2023-02-17T23:46:52.910Z,22.50
2023-02-17T23:49:22.155Z,21.00
2023-02-17T23:51:50.391Z,21.10
2023-02-17T23:54:18.882Z,21.90
2023-02-17T23:56:47.054Z,21.70
2023-02-17T23:59:15.322Z,22.10
